createdAt,value
2022-07-30T00:03:51.583Z,99.90
2022-07-30T00:07:53.192Z,99.90
2022-07-30T00:11:54.308Z,99.90
2022-07-30T00:15:55.445Z,99.90
2022-07-30T00:19:56.692Z,99.90
2022-07-30T00:24:01.660Z,99.90
2022-07-30T00:28:00.862Z,99.90
2022-07-30T00:32:02.106Z,99.90
2022-07-30T00:36:03.845Z,99.90
2022-07-30T00:40:07.306Z,99.90
2022-07-30T00:44:08.538Z,99.90
2022-07-30T00:48:11.181Z,99.90
2022-07-30T00:52:12.901Z,99.90
2022-07-30T00:56:14.044Z,99.90
2022-07-30T01:00:17.005Z,99.90
2022-07-30T01:04:18.240Z,99.90
2022-07-30T01:08:19.462Z,99.90
2022-07-30T01:12:23.918Z,99.90
2022-07-30T01:16:25.203Z,99.90
2022-07-30T01:20:36.150Z,99.90
2022-07-30T01:24:44.166Z,99.90
2022-07-30T01:28:51.943Z,99.90
2022-07-30T01:32:54.549Z,99.90
2022-07-30T01:36:58.788Z,99.90
2022-07-30T01:41:01.456Z,99.90
2022-07-30T01:45:04.469Z,99.90
2022-07-30T01:49:07.717Z,99.90
2022-07-30T01:53:17.056Z,99.90
2022-07-30T01:57:20.186Z,99.90
2022-07-30T02:01:22.862Z,99.90
2022-07-30T02:05:26.052Z,99.90
2022-07-30T02:09:31.088Z,99.90
2022-07-30T02:13:35.530Z,99.90
2022-07-30T02:17:44.979Z,99.90
2022-07-30T02:21:50.727Z,99.90
2022-07-30T02:25:51.104Z,99.90
2022-07-30T02:29:55.244Z,99.90
2022-07-30T02:34:00.376Z,99.90
2022-07-30T02:38:03.046Z,99.90
2022-07-30T02:42:07.027Z,99.90
2022-07-30T02:46:11.042Z,99.90
2022-07-30T02:50:14.903Z,99.90
2022-07-30T02:54:18.339Z,99.90
2022-07-30T02:58:22.658Z,99.90
2022-07-30T03:02:28.969Z,99.90
2022-07-30T03:06:28.750Z,99.90
2022-07-30T03:10:31.303Z,99.90
2022-07-30T03:14:32.541Z,99.90
2022-07-30T03:18:35.681Z,99.90
2022-07-30T03:22:40.693Z,99.90
2022-07-30T03:26:43.745Z,99.90
2022-07-30T03:30:45.251Z,99.90
2022-07-30T03:34:47.794Z,99.90
2022-07-30T03:38:49.809Z,99.90
2022-07-30T03:42:51.739Z,99.90
2022-07-30T03:46:54.476Z,99.90
2022-07-30T03:50:57.016Z,99.90
2022-07-30T03:54:59.034Z,99.90
2022-07-30T03:59:01.094Z,99.90
2022-07-30T04:03:02.318Z,99.90
2022-07-30T04:07:03.820Z,99.90
2022-07-30T04:11:05.165Z,99.90
2022-07-30T04:16:37.760Z,99.90
2022-07-30T04:19:27.059Z,99.90
2022-07-30T04:23:28.399Z,99.90
2022-07-30T04:27:31.245Z,99.90
2022-07-30T04:31:39.803Z,99.90
2022-07-30T04:35:51.216Z,99.90
2022-07-30T04:39:41.368Z,99.90
2022-07-30T04:43:42.566Z,99.90
2022-07-30T04:47:43.707Z,99.90
2022-07-30T04:51:45.969Z,99.90
2022-07-30T04:55:48.805Z,99.90
2022-07-30T04:59:50.099Z,99.90
2022-07-30T05:03:53.126Z,99.90
2022-07-30T05:07:55.843Z,99.90
2022-07-30T05:11:58.693Z,99.90
2022-07-30T05:15:59.863Z,99.90
2022-07-30T05:20:01.257Z,99.90
2022-07-30T05:24:04.166Z,99.90
2022-07-30T05:28:05.600Z,99.90
2022-07-30T05:32:07.382Z,99.90
2022-07-30T05:36:09.089Z,99.90
2022-07-30T05:40:11.835Z,99.90
2022-07-30T05:44:13.074Z,99.90
2022-07-30T05:48:14.304Z,99.90
2022-07-30T05:52:15.550Z,99.90
2022-07-30T05:56:16.797Z,99.90
2022-07-30T06:00:18.294Z,99.90
2022-07-30T06:04:19.661Z,99.90
2022-07-30T06:08:20.999Z,99.90
2022-07-30T06:12:22.224Z,99.90
2022-07-30T06:16:23.489Z,99.90
2022-07-30T06:20:24.790Z,99.90
2022-07-30T06:24:26.135Z,99.90
2022-07-30T06:28:38.419Z,99.90
2022-07-30T06:32:33.486Z,99.90
2022-07-30T06:36:34.620Z,99.90
2022-07-30T06:40:35.960Z,99.90
2022-07-30T06:44:37.180Z,99.90
2022-07-30T06:48:38.419Z,99.90
2022-07-30T06:52:39.649Z,99.90
2022-07-30T06:56:40.875Z,99.90
2022-07-30T07:00:43.926Z,99.90
2022-07-30T07:04:45.155Z,99.90
2022-07-30T07:08:46.457Z,99.90
2022-07-30T07:12:47.766Z,99.90
2022-07-30T07:16:49.361Z,99.90
2022-07-30T07:20:50.521Z,99.90
2022-07-30T07:24:51.741Z,99.90
2022-07-30T07:28:52.982Z,99.90
2022-07-30T07:32:54.304Z,99.90
2022-07-30T07:36:55.540Z,99.90
2022-07-30T07:40:56.973Z,99.90
2022-07-30T07:44:58.114Z,99.90
2022-07-30T07:48:59.398Z,99.90
2022-07-30T07:53:01.180Z,99.90
2022-07-30T07:57:04.890Z,99.90
2022-07-30T08:01:06.926Z,99.90
2022-07-30T08:05:11.772Z,99.90
2022-07-30T08:09:12.995Z,99.90
2022-07-30T08:13:47.950Z,99.90
2022-07-30T08:17:19.217Z,99.90
2022-07-30T08:21:22.189Z,99.90
2022-07-30T08:25:24.487Z,99.90
2022-07-30T08:29:25.772Z,99.90
2022-07-30T08:33:27.433Z,99.90
2022-07-30T08:37:29.183Z,99.90
2022-07-30T08:41:30.789Z,99.90
2022-07-30T08:45:34.667Z,99.90
2022-07-30T08:49:37.255Z,99.90
2022-07-30T08:53:39.491Z,99.90
2022-07-30T08:57:41.844Z,99.90
2022-07-30T09:01:43.384Z,99.90
2022-07-30T09:05:45.802Z,99.90
2022-07-30T09:09:47.039Z,96.80
2022-07-30T09:13:50.184Z,99.90
2022-07-30T09:17:57.573Z,99.90
2022-07-30T09:22:01.137Z,96.30
2022-07-30T09:26:02.374Z,89.90
2022-07-30T09:30:04.193Z,75.60
2022-07-30T09:34:09.169Z,80.40
2022-07-30T09:38:11.105Z,75.30
2022-07-30T09:42:25.033Z,81.20
2022-07-30T09:46:46.610Z,80.10
2022-07-30T09:50:50.227Z,75.70
2022-07-30T09:54:52.969Z,77.10
2022-07-30T09:58:56.553Z,70.40
2022-07-30T10:03:12.396Z,72.80
2022-07-30T10:07:09.355Z,68.90
2022-07-30T10:11:15.716Z,71.30
2022-07-30T10:15:20.134Z,68.90
2022-07-30T10:19:40.058Z,73.50
2022-07-30T10:23:27.371Z,71.60
2022-07-30T10:27:29.321Z,74.20
2022-07-30T10:31:49.332Z,75.00
2022-07-30T10:35:38.319Z,77.30
2022-07-30T10:39:47.166Z,76.90
2022-07-30T10:44:10.742Z,76.30
2022-07-30T10:48:13.757Z,73.50
2022-07-30T10:52:20.197Z,68.70
2022-07-30T10:56:25.863Z,68.80
2022-07-30T11:00:30.343Z,64.30
2022-07-30T11:04:31.702Z,62.70
2022-07-30T11:08:36.653Z,64.50
2022-07-30T11:12:46.631Z,61.70
2022-07-30T11:16:53.592Z,60.50
2022-07-30T11:21:16.528Z,58.90
2022-07-30T11:25:50.600Z,57.20
2022-07-30T11:29:51.138Z,57.60
2022-07-30T11:33:43.424Z,56.40
2022-07-30T11:38:08.846Z,57.00
2022-07-30T11:42:31.574Z,53.70
2022-07-30T11:46:33.811Z,52.10
2022-07-30T11:50:37.563Z,52.50
2022-07-30T11:54:53.517Z,50.70
2022-07-30T11:59:05.927Z,52.00
2022-07-30T12:03:12.695Z,52.80
2022-07-30T12:07:15.897Z,51.20
2022-07-30T12:11:17.383Z,51.80
2022-07-30T12:15:36.893Z,49.70
2022-07-30T12:19:47.366Z,48.80
2022-07-30T12:23:57.444Z,50.10
2022-07-30T12:27:58.982Z,49.00
2022-07-30T12:32:00.781Z,47.80
2022-07-30T12:36:02.234Z,47.60
2022-07-30T12:40:15.032Z,48.00
2022-07-30T12:44:38.811Z,47.00
2022-07-30T12:48:51.918Z,44.60
2022-07-30T12:52:55.314Z,44.80
2022-07-30T12:57:03.390Z,44.10
2022-07-30T13:01:06.326Z,44.00
2022-07-30T13:05:10.974Z,43.40
2022-07-30T13:09:22.097Z,43.60
2022-07-30T13:13:23.307Z,42.70
2022-07-30T13:17:24.421Z,42.30
2022-07-30T13:21:25.636Z,42.60
2022-07-30T13:25:27.338Z,42.50
2022-07-30T13:29:30.479Z,41.70
2022-07-30T13:33:31.599Z,42.20
2022-07-30T13:37:38.614Z,42.70
2022-07-30T13:41:36.705Z,42.80
2022-07-30T13:45:38.594Z,42.70
2022-07-30T13:49:41.749Z,43.20
2022-07-30T13:53:42.982Z,43.20
2022-07-30T13:57:45.063Z,43.50
2022-07-30T14:01:46.490Z,43.50
2022-07-30T14:05:47.960Z,43.70
2022-07-30T14:09:54.061Z,42.50
2022-07-30T14:13:52.307Z,42.10
2022-07-30T14:17:56.634Z,42.30
2022-07-30T14:21:57.147Z,41.70
2022-07-30T14:25:58.336Z,42.40
2022-07-30T14:30:00.075Z,42.00
2022-07-30T14:34:01.903Z,42.70
2022-07-30T14:42:10.592Z,43.70
2022-07-30T14:46:11.987Z,43.60
2022-07-30T14:50:13.203Z,43.80
2022-07-30T14:54:14.412Z,43.90
2022-07-30T14:58:15.660Z,45.20
2022-07-30T15:02:16.881Z,45.30
2022-07-30T15:06:17.999Z,44.40
2022-07-30T15:10:19.234Z,44.20
2022-07-30T15:14:20.663Z,44.60
2022-07-30T15:18:22.571Z,43.60
2022-07-30T15:22:23.706Z,44.50
2022-07-30T15:26:24.923Z,44.50
2022-07-30T15:30:26.359Z,43.40
2022-07-30T15:34:30.276Z,42.70
2022-07-30T15:38:31.913Z,41.30
2022-07-30T15:42:33.241Z,40.80
2022-07-30T15:46:35.523Z,41.00
2022-07-30T15:50:36.811Z,41.70
2022-07-30T15:54:38.699Z,40.10
2022-07-30T15:58:43.515Z,40.00
2022-07-30T16:02:43.717Z,40.60
2022-07-30T16:06:44.958Z,40.20
2022-07-30T16:10:46.703Z,41.20
2022-07-30T16:14:47.958Z,41.70
2022-07-30T16:18:49.273Z,42.20
2022-07-30T16:22:50.503Z,42.20
2022-07-30T16:26:51.707Z,42.00
2022-07-30T16:30:53.269Z,42.20
2022-07-30T16:34:54.465Z,41.80
2022-07-30T16:38:55.813Z,40.80
2022-07-30T16:42:57.219Z,41.80
2022-07-30T16:47:00.120Z,40.60
2022-07-30T16:51:01.638Z,39.60
2022-07-30T16:55:03.150Z,38.60
2022-07-30T16:59:04.533Z,38.30
2022-07-30T17:03:05.771Z,39.20
2022-07-30T17:07:07.006Z,38.10
2022-07-30T17:11:08.803Z,38.00
2022-07-30T17:15:11.379Z,38.00
2022-07-30T17:19:12.603Z,38.40
2022-07-30T17:23:13.830Z,38.30
2022-07-30T17:27:15.059Z,38.00
2022-07-30T17:31:16.290Z,39.00
2022-07-30T17:35:17.824Z,39.70
2022-07-30T17:40:27.625Z,40.60
2022-07-30T17:43:24.163Z,41.10
2022-07-30T17:47:25.374Z,41.70
2022-07-30T17:51:27.339Z,42.10
2022-07-30T17:55:28.642Z,42.40
2022-07-30T17:59:29.761Z,42.30
2022-07-30T18:03:31.789Z,42.50
2022-07-30T18:07:32.922Z,42.80
2022-07-30T18:11:34.138Z,42.60
2022-07-30T18:15:35.929Z,43.00
2022-07-30T18:19:37.364Z,42.70
2022-07-30T18:23:38.480Z,43.80
2022-07-30T18:27:39.605Z,43.80
2022-07-30T18:31:40.823Z,44.00
2022-07-30T18:35:42.647Z,44.90
2022-07-30T18:39:43.786Z,45.10
2022-07-30T18:43:48.111Z,44.70
2022-07-30T18:47:48.540Z,44.70
2022-07-30T18:51:50.037Z,45.40
2022-07-30T18:55:51.472Z,45.90
2022-07-30T18:59:52.978Z,45.80
2022-07-30T19:03:54.113Z,45.70
2022-07-30T19:07:57.266Z,46.50
2022-07-30T19:11:58.488Z,46.70
2022-07-30T19:15:59.697Z,46.80
2022-07-30T19:20:01.648Z,47.20
2022-07-30T19:24:03.811Z,48.90
2022-07-30T19:28:05.083Z,49.00
2022-07-30T19:32:06.819Z,50.00
2022-07-30T19:36:09.234Z,51.10
2022-07-30T19:40:12.711Z,51.50
2022-07-30T19:44:17.596Z,52.10
2022-07-30T19:48:28.846Z,52.00
2022-07-30T19:52:25.483Z,52.40
2022-07-30T19:56:27.612Z,53.50
2022-07-30T20:00:28.841Z,54.70
2022-07-30T20:04:30.272Z,55.80
2022-07-30T20:08:31.487Z,55.30
2022-07-30T20:12:32.616Z,56.00
2022-07-30T20:16:34.939Z,56.80
2022-07-30T20:20:36.187Z,55.80
2022-07-30T20:24:39.307Z,56.00
2022-07-30T20:28:46.252Z,56.20
2022-07-30T20:32:49.216Z,56.90
2022-07-30T20:36:50.583Z,57.20
2022-07-30T20:40:52.603Z,57.10
2022-07-30T20:44:55.735Z,57.10
2022-07-30T20:48:57.073Z,54.90
2022-07-30T20:52:58.762Z,56.10
2022-07-30T20:57:00.005Z,57.30
2022-07-30T21:01:01.809Z,58.20
2022-07-30T21:05:05.617Z,59.20
2022-07-30T21:09:07.854Z,58.80
2022-07-30T21:13:11.005Z,59.10
2022-07-30T21:17:12.406Z,59.00
2022-07-30T21:21:13.634Z,59.30
2022-07-30T21:25:15.055Z,60.50
2022-07-30T21:29:18.092Z,62.20
2022-07-30T21:33:19.396Z,64.40
2022-07-30T21:37:21.010Z,63.30
2022-07-30T21:41:40.153Z,62.90
2022-07-30T21:45:28.339Z,63.40
2022-07-30T21:49:28.999Z,63.00
2022-07-30T21:53:44.943Z,62.70
2022-07-30T21:57:36.500Z,63.50
2022-07-30T22:01:38.757Z,63.40
2022-07-30T22:05:41.340Z,63.30
2022-07-30T22:09:43.450Z,64.20
2022-07-30T22:13:53.667Z,64.40
2022-07-30T22:18:00.813Z,65.50
2022-07-30T22:21:51.228Z,69.10
2022-07-30T22:25:53.287Z,75.90
2022-07-30T22:29:56.315Z,82.00
2022-07-30T22:33:57.505Z,90.50
2022-07-30T22:37:59.233Z,90.70
2022-07-30T22:42:01.230Z,91.70
2022-07-30T22:46:02.910Z,91.80
2022-07-30T22:50:08.171Z,93.90
2022-07-30T22:54:13.049Z,97.80
2022-07-30T22:58:12.782Z,98.10
2022-07-30T23:02:14.698Z,99.70
2022-07-30T23:06:17.730Z,99.90
2022-07-30T23:10:21.266Z,99.90
2022-07-30T23:14:23.877Z,99.90
2022-07-30T23:18:26.901Z,99.90
2022-07-30T23:22:28.023Z,99.90
2022-07-30T23:26:29.151Z,99.90
2022-07-30T23:30:33.823Z,99.90
2022-07-30T23:34:33.454Z,99.90
2022-07-30T23:38:36.401Z,99.90
2022-07-30T23:42:37.619Z,99.90
2022-07-30T23:46:40.186Z,99.90
2022-07-30T23:50:41.386Z,99.90
2022-07-30T23:54:42.516Z,99.90
2022-07-30T23:58:45.650Z,99.90
